sensor_id;sensor_type;location;lat;lon;timestamp;P1;durP1;ratioP1;P2;durP2;ratioP2
71106;SDS011;58763;47.982;11.516;2024-03-08T00:02:23;25.88;;;12.73;;
71106;SDS011;58763;47.982;11.516;2024-03-08T00:04:49;24.13;;;12.20;;
71106;SDS011;58763;47.982;11.516;2024-03-08T00:07:15;25.17;;;12.38;;
71106;SDS011;58763;47.982;11.516;2024-03-08T00:09:40;24.33;;;12.82;;
71106;SDS011;58763;47.982;11.516;2024-03-08T00:12:06;26.65;;;12.40;;
71106;SDS011;58763;47.982;11.516;2024-03-08T00:14:32;25.85;;;13.38;;
71106;SDS011;58763;47.982;11.516;2024-03-08T00:16:58;23.42;;;12.52;;
71106;SDS011;58763;47.982;11.516;2024-03-08T00:19:24;25.95;;;12.38;;
71106;SDS011;58763;47.982;11.516;2024-03-08T00:21:50;26.45;;;13.55;;
71106;SDS011;58763;47.982;11.516;2024-03-08T00:24:15;24.15;;;12.63;;
71106;SDS011;58763;47.982;11.516;2024-03-08T00:26:41;24.02;;;12.20;;
71106;SDS011;58763;47.982;11.516;2024-03-08T00:29:07;26.70;;;12.77;;
71106;SDS011;58763;47.982;11.516;2024-03-08T00:31:34;28.80;;;13.55;;
71106;SDS011;58763;47.982;11.516;2024-03-08T00:33:59;25.67;;;12.98;;
71106;SDS011;58763;47.982;11.516;2024-03-08T00:36:25;22.33;;;11.55;;
71106;SDS011;58763;47.982;11.516;2024-03-08T00:38:50;24.45;;;11.82;;
71106;SDS011;58763;47.982;11.516;2024-03-08T00:41:16;23.48;;;12.00;;
71106;SDS011;58763;47.982;11.516;2024-03-08T00:43:42;24.05;;;12.18;;
71106;SDS011;58763;47.982;11.516;2024-03-08T00:46:07;25.75;;;12.27;;
71106;SDS011;58763;47.982;11.516;2024-03-08T00:48:33;24.33;;;12.50;;
71106;SDS011;58763;47.982;11.516;2024-03-08T00:50:59;22.13;;;12.18;;
71106;SDS011;58763;47.982;11.516;2024-03-08T00:53:25;26.90;;;13.38;;
71106;SDS011;58763;47.982;11.516;2024-03-08T00:55:50;23.23;;;12.27;;
71106;SDS011;58763;47.982;11.516;2024-03-08T00:58:17;26.88;;;13.25;;
71106;SDS011;58763;47.982;11.516;2024-03-08T01:00:42;24.08;;;12.38;;
71106;SDS011;58763;47.982;11.516;2024-03-08T01:03:08;23.20;;;12.27;;
71106;SDS011;58763;47.982;11.516;2024-03-08T01:05:33;25.13;;;12.30;;
71106;SDS011;58763;47.982;11.516;2024-03-08T01:08:01;23.73;;;11.55;;
71106;SDS011;58763;47.982;11.516;2024-03-08T01:10:28;23.67;;;12.00;;
71106;SDS011;58763;47.982;11.516;2024-03-08T01:12:54;24.35;;;12.45;;
71106;SDS011;58763;47.982;11.516;2024-03-08T01:15:22;26.45;;;12.88;;
71106;SDS011;58763;47.982;11.516;2024-03-08T01:17:48;22.67;;;11.35;;
71106;SDS011;58763;47.982;11.516;2024-03-08T01:20:15;22.67;;;11.75;;
71106;SDS011;58763;47.982;11.516;2024-03-08T01:25:22;24.40;;;11.60;;
71106;SDS011;58763;47.982;11.516;2024-03-08T01:27:48;24.75;;;12.32;;
71106;SDS011;58763;47.982;11.516;2024-03-08T01:30:13;24.10;;;12.27;;
71106;SDS011;58763;47.982;11.516;2024-03-08T01:32:43;23.30;;;12.10;;
71106;SDS011;58763;47.982;11.516;2024-03-08T01:35:09;26.27;;;12.35;;
71106;SDS011;58763;47.982;11.516;2024-03-08T01:37:36;24.25;;;12.00;;
71106;SDS011;58763;47.982;11.516;2024-03-08T01:40:01;23.17;;;12.30;;
71106;SDS011;58763;47.982;11.516;2024-03-08T01:42:28;26.83;;;12.65;;
71106;SDS011;58763;47.982;11.516;2024-03-08T01:44:54;24.42;;;12.43;;
71106;SDS011;58763;47.982;11.516;2024-03-08T01:47:21;26.05;;;12.45;;
71106;SDS011;58763;47.982;11.516;2024-03-08T01:49:51;23.75;;;12.15;;
71106;SDS011;58763;47.982;11.516;2024-03-08T01:52:18;23.85;;;12.35;;
71106;SDS011;58763;47.982;11.516;2024-03-08T01:54:47;26.70;;;11.55;;
71106;SDS011;58763;47.982;11.516;2024-03-08T01:57:12;23.42;;;12.10;;
71106;SDS011;58763;47.982;11.516;2024-03-08T01:59:39;25.02;;;12.70;;
71106;SDS011;58763;47.982;11.516;2024-03-08T02:02:06;23.08;;;11.93;;
71106;SDS011;58763;47.982;11.516;2024-03-08T02:04:34;23.70;;;11.85;;
71106;SDS011;58763;47.982;11.516;2024-03-08T02:07:01;27.88;;;12.75;;
71106;SDS011;58763;47.982;11.516;2024-03-08T02:09:27;24.83;;;13.15;;
71106;SDS011;58763;47.982;11.516;2024-03-08T02:11:53;23.02;;;11.73;;
71106;SDS011;58763;47.982;11.516;2024-03-08T02:14:20;24.60;;;12.63;;
71106;SDS011;58763;47.982;11.516;2024-03-08T02:16:46;26.52;;;12.38;;
71106;SDS011;58763;47.982;11.516;2024-03-08T02:19:11;26.33;;;12.73;;
71106;SDS011;58763;47.982;11.516;2024-03-08T02:21:37;24.88;;;12.18;;
71106;SDS011;58763;47.982;11.516;2024-03-08T02:24:03;27.35;;;12.80;;
71106;SDS011;58763;47.982;11.516;2024-03-08T02:26:30;26.13;;;12.45;;
71106;SDS011;58763;47.982;11.516;2024-03-08T02:28:56;27.90;;;11.82;;
71106;SDS011;58763;47.982;11.516;2024-03-08T02:31:21;24.73;;;12.40;;
71106;SDS011;58763;47.982;11.516;2024-03-08T02:33:47;24.67;;;12.50;;
71106;SDS011;58763;47.982;11.516;2024-03-08T02:36:13;26.27;;;12.07;;
71106;SDS011;58763;47.982;11.516;2024-03-08T02:38:39;26.17;;;12.73;;
71106;SDS011;58763;47.982;11.516;2024-03-08T02:41:06;27.60;;;13.40;;
71106;SDS011;58763;47.982;11.516;2024-03-08T02:43:34;26.35;;;12.63;;
71106;SDS011;58763;47.982;11.516;2024-03-08T02:45:59;25.50;;;12.73;;
71106;SDS011;58763;47.982;11.516;2024-03-08T02:48:25;24.65;;;12.52;;
71106;SDS011;58763;47.982;11.516;2024-03-08T02:50:51;26.15;;;13.25;;
71106;SDS011;58763;47.982;11.516;2024-03-08T02:53:17;24.67;;;13.15;;
71106;SDS011;58763;47.982;11.516;2024-03-08T02:55:44;25.77;;;12.88;;
71106;SDS011;58763;47.982;11.516;2024-03-08T02:58:09;27.50;;;13.05;;
71106;SDS011;58763;47.982;11.516;2024-03-08T03:00:37;23.98;;;12.63;;
71106;SDS011;58763;47.982;11.516;2024-03-08T03:03:04;26.00;;;13.15;;
71106;SDS011;58763;47.982;11.516;2024-03-08T03:05:30;30.10;;;13.57;;
71106;SDS011;58763;47.982;11.516;2024-03-08T03:07:56;27.70;;;13.38;;
71106;SDS011;58763;47.982;11.516;2024-03-08T03:10:23;25.30;;;12.95;;
71106;SDS011;58763;47.982;11.516;2024-03-08T03:12:49;25.65;;;12.52;;
71106;SDS011;58763;47.982;11.516;2024-03-08T03:15:15;24.33;;;12.75;;
71106;SDS011;58763;47.982;11.516;2024-03-08T03:17:48;24.85;;;13.07;;
71106;SDS011;58763;47.982;11.516;2024-03-08T03:20:18;29.63;;;14.02;;
71106;SDS011;58763;47.982;11.516;2024-03-08T03:22:58;24.20;;;12.52;;
71106;SDS011;58763;47.982;11.516;2024-03-08T03:25:26;26.77;;;13.18;;
71106;SDS011;58763;47.982;11.516;2024-03-08T03:27:54;26.58;;;13.82;;
71106;SDS011;58763;47.982;11.516;2024-03-08T03:30:23;29.92;;;14.52;;
71106;SDS011;58763;47.982;11.516;2024-03-08T03:32:52;28.88;;;14.40;;
71106;SDS011;58763;47.982;11.516;2024-03-08T03:35:20;31.10;;;14.38;;
71106;SDS011;58763;47.982;11.516;2024-03-08T03:37:46;31.98;;;15.10;;
71106;SDS011;58763;47.982;11.516;2024-03-08T03:40:39;31.30;;;13.95;;
71106;SDS011;58763;47.982;11.516;2024-03-08T03:43:05;31.00;;;15.00;;
71106;SDS011;58763;47.982;11.516;2024-03-08T03:45:31;33.22;;;15.25;;
71106;SDS011;58763;47.982;11.516;2024-03-08T03:48:03;31.00;;;14.70;;
71106;SDS011;58763;47.982;11.516;2024-03-08T03:50:30;34.10;;;15.10;;
71106;SDS011;58763;47.982;11.516;2024-03-08T03:52:56;31.10;;;14.93;;
71106;SDS011;58763;47.982;11.516;2024-03-08T03:55:22;32.05;;;15.52;;
71106;SDS011;58763;47.982;11.516;2024-03-08T03:57:48;33.15;;;15.45;;
71106;SDS011;58763;47.982;11.516;2024-03-08T04:00:13;35.30;;;15.27;;
71106;SDS011;58763;47.982;11.516;2024-03-08T04:02:39;30.48;;;15.07;;
71106;SDS011;58763;47.982;11.516;2024-03-08T04:05:06;29.45;;;14.25;;
71106;SDS011;58763;47.982;11.516;2024-03-08T04:07:33;31.60;;;14.95;;
71106;SDS011;58763;47.982;11.516;2024-03-08T04:10:00;29.85;;;14.70;;
71106;SDS011;58763;47.982;11.516;2024-03-08T04:12:27;34.30;;;15.70;;
71106;SDS011;58763;47.982;11.516;2024-03-08T04:14:55;34.38;;;15.52;;
71106;SDS011;58763;47.982;11.516;2024-03-08T04:17:21;31.58;;;14.75;;
71106;SDS011;58763;47.982;11.516;2024-03-08T04:19:47;36.90;;;16.20;;
71106;SDS011;58763;47.982;11.516;2024-03-08T04:22:14;33.53;;;15.18;;
71106;SDS011;58763;47.982;11.516;2024-03-08T04:24:39;37.22;;;17.08;;
71106;SDS011;58763;47.982;11.516;2024-03-08T04:27:06;32.17;;;15.48;;
71106;SDS011;58763;47.982;11.516;2024-03-08T04:29:31;35.40;;;16.45;;
71106;SDS011;58763;47.982;11.516;2024-03-08T04:31:58;33.17;;;15.02;;
71106;SDS011;58763;47.982;11.516;2024-03-08T04:34:24;36.00;;;15.52;;
71106;SDS011;58763;47.982;11.516;2024-03-08T04:36:49;29.30;;;15.02;;
71106;SDS011;58763;47.982;11.516;2024-03-08T04:39:15;33.22;;;15.75;;
71106;SDS011;58763;47.982;11.516;2024-03-08T04:41:41;30.92;;;15.30;;
71106;SDS011;58763;47.982;11.516;2024-03-08T04:44:09;31.55;;;15.32;;
71106;SDS011;58763;47.982;11.516;2024-03-08T04:46:36;31.00;;;14.52;;
71106;SDS011;58763;47.982;11.516;2024-03-08T04:49:02;33.17;;;15.55;;
71106;SDS011;58763;47.982;11.516;2024-03-08T04:51:28;33.15;;;15.65;;
71106;SDS011;58763;47.982;11.516;2024-03-08T04:53:53;34.00;;;16.95;;
71106;SDS011;58763;47.982;11.516;2024-03-08T04:56:19;33.42;;;15.55;;
71106;SDS011;58763;47.982;11.516;2024-03-08T04:58:45;31.13;;;14.80;;
71106;SDS011;58763;47.982;11.516;2024-03-08T05:01:15;31.77;;;14.93;;
71106;SDS011;58763;47.982;11.516;2024-03-08T05:03:40;34.42;;;15.40;;
71106;SDS011;58763;47.982;11.516;2024-03-08T05:06:06;30.70;;;15.25;;
71106;SDS011;58763;47.982;11.516;2024-03-08T05:08:32;31.77;;;15.15;;
71106;SDS011;58763;47.982;11.516;2024-03-08T05:10:58;36.42;;;15.93;;
71106;SDS011;58763;47.982;11.516;2024-03-08T05:13:26;31.55;;;14.90;;
71106;SDS011;58763;47.982;11.516;2024-03-08T05:15:52;31.92;;;14.55;;
71106;SDS011;58763;47.982;11.516;2024-03-08T05:18:17;31.83;;;15.13;;
71106;SDS011;58763;47.982;11.516;2024-03-08T05:20:43;32.35;;;14.68;;
71106;SDS011;58763;47.982;11.516;2024-03-08T05:23:09;35.58;;;15.23;;
71106;SDS011;58763;47.982;11.516;2024-03-08T05:25:35;32.55;;;15.23;;
71106;SDS011;58763;47.982;11.516;2024-03-08T05:28:01;34.13;;;15.02;;
71106;SDS011;58763;47.982;11.516;2024-03-08T05:30:27;35.80;;;15.13;;
71106;SDS011;58763;47.982;11.516;2024-03-08T05:32:52;32.72;;;15.02;;
71106;SDS011;58763;47.982;11.516;2024-03-08T05:35:18;33.97;;;15.18;;
71106;SDS011;58763;47.982;11.516;2024-03-08T05:37:44;30.65;;;14.38;;
71106;SDS011;58763;47.982;11.516;2024-03-08T05:40:10;32.70;;;14.85;;
71106;SDS011;58763;47.982;11.516;2024-03-08T05:42:36;32.08;;;14.70;;
71106;SDS011;58763;47.982;11.516;2024-03-08T05:45:02;35.03;;;14.95;;
71106;SDS011;58763;47.982;11.516;2024-03-08T05:47:29;30.75;;;14.50;;
71106;SDS011;58763;47.982;11.516;2024-03-08T05:49:55;32.28;;;15.20;;
71106;SDS011;58763;47.982;11.516;2024-03-08T05:52:21;32.47;;;14.00;;
71106;SDS011;58763;47.982;11.516;2024-03-08T05:54:46;30.65;;;14.70;;
71106;SDS011;58763;47.982;11.516;2024-03-08T05:57:12;32.30;;;15.70;;
71106;SDS011;58763;47.982;11.516;2024-03-08T05:59:42;30.60;;;14.77;;
71106;SDS011;58763;47.982;11.516;2024-03-08T06:02:07;31.63;;;15.07;;
71106;SDS011;58763;47.982;11.516;2024-03-08T06:04:33;30.88;;;14.88;;
71106;SDS011;58763;47.982;11.516;2024-03-08T06:06:59;40.15;;;15.48;;
71106;SDS011;58763;47.982;11.516;2024-03-08T06:09:25;34.50;;;14.98;;
71106;SDS011;58763;47.982;11.516;2024-03-08T06:11:54;35.22;;;15.98;;
71106;SDS011;58763;47.982;11.516;2024-03-08T06:14:21;33.78;;;15.63;;
71106;SDS011;58763;47.982;11.516;2024-03-08T06:16:47;37.72;;;16.70;;
71106;SDS011;58763;47.982;11.516;2024-03-08T06:19:15;35.20;;;16.25;;
71106;SDS011;58763;47.982;11.516;2024-03-08T06:21:41;31.65;;;15.43;;
71106;SDS011;58763;47.982;11.516;2024-03-08T06:24:07;36.03;;;15.50;;
71106;SDS011;58763;47.982;11.516;2024-03-08T06:26:33;33.97;;;15.73;;
71106;SDS011;58763;47.982;11.516;2024-03-08T06:28:59;35.08;;;15.63;;
71106;SDS011;58763;47.982;11.516;2024-03-08T06:31:25;32.35;;;14.93;;
71106;SDS011;58763;47.982;11.516;2024-03-08T06:33:51;28.58;;;13.88;;
71106;SDS011;58763;47.982;11.516;2024-03-08T06:36:19;36.00;;;14.95;;
71106;SDS011;58763;47.982;11.516;2024-03-08T06:38:48;30.10;;;14.68;;
71106;SDS011;58763;47.982;11.516;2024-03-08T06:41:14;30.73;;;14.93;;
71106;SDS011;58763;47.982;11.516;2024-03-08T06:43:44;32.20;;;14.85;;
71106;SDS011;58763;47.982;11.516;2024-03-08T06:46:11;33.60;;;14.65;;
71106;SDS011;58763;47.982;11.516;2024-03-08T06:48:40;32.65;;;15.32;;
71106;SDS011;58763;47.982;11.516;2024-03-08T06:51:05;30.67;;;13.88;;
71106;SDS011;58763;47.982;11.516;2024-03-08T06:53:31;29.92;;;14.52;;
71106;SDS011;58763;47.982;11.516;2024-03-08T06:55:58;33.55;;;14.70;;
71106;SDS011;58763;47.982;11.516;2024-03-08T06:58:24;34.47;;;15.45;;
71106;SDS011;58763;47.982;11.516;2024-03-08T07:00:50;31.02;;;14.25;;
71106;SDS011;58763;47.982;11.516;2024-03-08T07:03:18;32.80;;;14.30;;
71106;SDS011;58763;47.982;11.516;2024-03-08T07:05:44;34.30;;;15.30;;
71106;SDS011;58763;47.982;11.516;2024-03-08T07:08:10;33.38;;;15.30;;
71106;SDS011;58763;47.982;11.516;2024-03-08T07:10:39;33.42;;;15.77;;
71106;SDS011;58763;47.982;11.516;2024-03-08T07:13:07;34.78;;;15.23;;
71106;SDS011;58763;47.982;11.516;2024-03-08T07:15:33;34.47;;;15.48;;
71106;SDS011;58763;47.982;11.516;2024-03-08T07:17:58;31.75;;;14.65;;
71106;SDS011;58763;47.982;11.516;2024-03-08T07:20:25;31.70;;;14.05;;
71106;SDS011;58763;47.982;11.516;2024-03-08T07:22:51;32.05;;;15.07;;
71106;SDS011;58763;47.982;11.516;2024-03-08T07:25:17;30.63;;;15.55;;
71106;SDS011;58763;47.982;11.516;2024-03-08T07:27:55;32.30;;;14.35;;
71106;SDS011;58763;47.982;11.516;2024-03-08T07:30:21;28.63;;;14.27;;
71106;SDS011;58763;47.982;11.516;2024-03-08T07:33:15;30.55;;;13.82;;
71106;SDS011;58763;47.982;11.516;2024-03-08T07:35:41;31.90;;;14.20;;
71106;SDS011;58763;47.982;11.516;2024-03-08T07:38:10;30.58;;;14.57;;
71106;SDS011;58763;47.982;11.516;2024-03-08T07:40:37;28.90;;;14.57;;
71106;SDS011;58763;47.982;11.516;2024-03-08T07:43:07;30.00;;;13.75;;
71106;SDS011;58763;47.982;11.516;2024-03-08T07:45:33;30.65;;;13.85;;
71106;SDS011;58763;47.982;11.516;2024-03-08T07:47:59;28.02;;;13.40;;
71106;SDS011;58763;47.982;11.516;2024-03-08T07:50:25;28.40;;;13.32;;
71106;SDS011;58763;47.982;11.516;2024-03-08T07:52:50;29.13;;;13.93;;
71106;SDS011;58763;47.982;11.516;2024-03-08T07:55:16;30.45;;;14.38;;
71106;SDS011;58763;47.982;11.516;2024-03-08T07:57:41;28.48;;;13.75;;
71106;SDS011;58763;47.982;11.516;2024-03-08T08:00:08;28.20;;;14.45;;
71106;SDS011;58763;47.982;11.516;2024-03-08T08:02:36;26.33;;;13.00;;
71106;SDS011;58763;47.982;11.516;2024-03-08T08:05:02;48.10;;;15.18;;
71106;SDS011;58763;47.982;11.516;2024-03-08T08:07:30;39.10;;;14.73;;
71106;SDS011;58763;47.982;11.516;2024-03-08T08:09:55;34.53;;;14.85;;
71106;SDS011;58763;47.982;11.516;2024-03-08T08:12:21;50.45;;;15.18;;
71106;SDS011;58763;47.982;11.516;2024-03-08T08:14:47;31.50;;;13.60;;
71106;SDS011;58763;47.982;11.516;2024-03-08T08:17:13;33.40;;;13.88;;
71106;SDS011;58763;47.982;11.516;2024-03-08T08:19:42;36.05;;;13.82;;
71106;SDS011;58763;47.982;11.516;2024-03-08T08:22:08;32.92;;;14.25;;
71106;SDS011;58763;47.982;11.516;2024-03-08T08:24:34;28.77;;;13.93;;
71106;SDS011;58763;47.982;11.516;2024-03-08T08:27:02;32.42;;;13.63;;
71106;SDS011;58763;47.982;11.516;2024-03-08T08:29:28;38.10;;;14.43;;
71106;SDS011;58763;47.982;11.516;2024-03-08T08:31:54;27.60;;;13.35;;
71106;SDS011;58763;47.982;11.516;2024-03-08T08:34:19;32.63;;;14.60;;
71106;SDS011;58763;47.982;11.516;2024-03-08T08:36:49;31.80;;;14.07;;
71106;SDS011;58763;47.982;11.516;2024-03-08T08:39:14;26.75;;;13.18;;
71106;SDS011;58763;47.982;11.516;2024-03-08T08:41:42;28.80;;;14.00;;
71106;SDS011;58763;47.982;11.516;2024-03-08T08:44:08;28.83;;;12.90;;
71106;SDS011;58763;47.982;11.516;2024-03-08T08:46:35;38.28;;;14.30;;
71106;SDS011;58763;47.982;11.516;2024-03-08T08:49:03;34.67;;;14.60;;
71106;SDS011;58763;47.982;11.516;2024-03-08T08:51:30;29.80;;;13.45;;
71106;SDS011;58763;47.982;11.516;2024-03-08T08:53:56;30.83;;;13.55;;
71106;SDS011;58763;47.982;11.516;2024-03-08T08:56:22;31.08;;;13.45;;
71106;SDS011;58763;47.982;11.516;2024-03-08T08:58:47;28.48;;;13.35;;
71106;SDS011;58763;47.982;11.516;2024-03-08T09:01:14;32.28;;;14.52;;
71106;SDS011;58763;47.982;11.516;2024-03-08T09:03:40;32.55;;;13.55;;
71106;SDS011;58763;47.982;11.516;2024-03-08T09:06:06;28.00;;;13.38;;
71106;SDS011;58763;47.982;11.516;2024-03-08T09:08:37;27.33;;;12.70;;
71106;SDS011;58763;47.982;11.516;2024-03-08T09:11:03;29.35;;;13.40;;
71106;SDS011;58763;47.982;11.516;2024-03-08T09:13:29;31.40;;;13.85;;
71106;SDS011;58763;47.982;11.516;2024-03-08T09:15:56;35.10;;;14.20;;
71106;SDS011;58763;47.982;11.516;2024-03-08T09:18:21;42.75;;;14.82;;
71106;SDS011;58763;47.982;11.516;2024-03-08T09:20:49;38.90;;;14.65;;
71106;SDS011;58763;47.982;11.516;2024-03-08T09:23:16;25.83;;;13.77;;
71106;SDS011;58763;47.982;11.516;2024-03-08T09:25:45;32.13;;;14.05;;
71106;SDS011;58763;47.982;11.516;2024-03-08T09:28:12;40.17;;;14.45;;
71106;SDS011;58763;47.982;11.516;2024-03-08T09:30:38;32.83;;;14.43;;
71106;SDS011;58763;47.982;11.516;2024-03-08T09:33:04;27.92;;;12.70;;
71106;SDS011;58763;47.982;11.516;2024-03-08T09:35:31;26.55;;;13.40;;
71106;SDS011;58763;47.982;11.516;2024-03-08T09:37:57;33.33;;;13.50;;
71106;SDS011;58763;47.982;11.516;2024-03-08T09:40:22;27.38;;;12.85;;
71106;SDS011;58763;47.982;11.516;2024-03-08T09:42:49;28.17;;;13.55;;
71106;SDS011;58763;47.982;11.516;2024-03-08T09:45:15;24.90;;;12.73;;
71106;SDS011;58763;47.982;11.516;2024-03-08T09:47:42;30.30;;;13.52;;
71106;SDS011;58763;47.982;11.516;2024-03-08T09:50:09;25.58;;;12.68;;
71106;SDS011;58763;47.982;11.516;2024-03-08T09:52:40;26.73;;;13.20;;
71106;SDS011;58763;47.982;11.516;2024-03-08T09:55:12;28.45;;;13.30;;
71106;SDS011;58763;47.982;11.516;2024-03-08T09:57:41;26.88;;;12.05;;
71106;SDS011;58763;47.982;11.516;2024-03-08T10:00:28;26.45;;;13.43;;
71106;SDS011;58763;47.982;11.516;2024-03-08T10:02:54;24.27;;;12.23;;
71106;SDS011;58763;47.982;11.516;2024-03-08T10:05:19;29.63;;;13.10;;
71106;SDS011;58763;47.982;11.516;2024-03-08T10:07:47;29.60;;;13.00;;
71106;SDS011;58763;47.982;11.516;2024-03-08T10:10:13;24.85;;;12.40;;
71106;SDS011;58763;47.982;11.516;2024-03-08T10:12:38;25.65;;;11.77;;
71106;SDS011;58763;47.982;11.516;2024-03-08T10:15:07;25.55;;;13.30;;
71106;SDS011;58763;47.982;11.516;2024-03-08T10:17:34;26.92;;;13.52;;
71106;SDS011;58763;47.982;11.516;2024-03-08T10:20:00;22.73;;;12.27;;
71106;SDS011;58763;47.982;11.516;2024-03-08T10:22:26;25.13;;;12.82;;
71106;SDS011;58763;47.982;11.516;2024-03-08T10:24:52;22.60;;;11.55;;
71106;SDS011;58763;47.982;11.516;2024-03-08T10:27:17;24.27;;;12.73;;
71106;SDS011;58763;47.982;11.516;2024-03-08T10:29:47;23.40;;;12.55;;
71106;SDS011;58763;47.982;11.516;2024-03-08T10:32:14;23.58;;;11.82;;
71106;SDS011;58763;47.982;11.516;2024-03-08T10:34:39;22.08;;;12.50;;
71106;SDS011;58763;47.982;11.516;2024-03-08T10:37:07;24.27;;;12.43;;
71106;SDS011;58763;47.982;11.516;2024-03-08T10:39:38;23.87;;;12.37;;
71106;SDS011;58763;47.982;11.516;2024-03-08T10:42:10;24.33;;;12.10;;
71106;SDS011;58763;47.982;11.516;2024-03-08T10:44:49;23.70;;;13.05;;
71106;SDS011;58763;47.982;11.516;2024-03-08T10:47:41;22.08;;;11.82;;
71106;SDS011;58763;47.982;11.516;2024-03-08T10:50:19;22.30;;;12.82;;
71106;SDS011;58763;47.982;11.516;2024-03-08T10:52:50;22.50;;;12.15;;
71106;SDS011;58763;47.982;11.516;2024-03-08T10:55:19;22.50;;;11.50;;
71106;SDS011;58763;47.982;11.516;2024-03-08T10:57:48;22.27;;;11.48;;
71106;SDS011;58763;47.982;11.516;2024-03-08T11:00:13;20.63;;;11.50;;
71106;SDS011;58763;47.982;11.516;2024-03-08T11:02:48;22.05;;;10.88;;
71106;SDS011;58763;47.982;11.516;2024-03-08T11:05:15;19.67;;;11.02;;
71106;SDS011;58763;47.982;11.516;2024-03-08T11:08:01;19.95;;;10.60;;
71106;SDS011;58763;47.982;11.516;2024-03-08T11:10:29;20.05;;;10.70;;
71106;SDS011;58763;47.982;11.516;2024-03-08T11:12:55;20.83;;;11.07;;
71106;SDS011;58763;47.982;11.516;2024-03-08T11:15:20;18.80;;;10.63;;
71106;SDS011;58763;47.982;11.516;2024-03-08T11:17:50;20.30;;;11.05;;
71106;SDS011;58763;47.982;11.516;2024-03-08T11:22:49;19.20;;;10.52;;
71106;SDS011;58763;47.982;11.516;2024-03-08T11:30:45;18.80;;;10.82;;
71106;SDS011;58763;47.982;11.516;2024-03-08T11:33:14;20.67;;;11.18;;
71106;SDS011;58763;47.982;11.516;2024-03-08T11:35:41;23.27;;;10.75;;
71106;SDS011;58763;47.982;11.516;2024-03-08T11:38:11;21.67;;;10.95;;
71106;SDS011;58763;47.982;11.516;2024-03-08T11:40:38;19.08;;;10.80;;
71106;SDS011;58763;47.982;11.516;2024-03-08T11:43:05;20.70;;;10.95;;
71106;SDS011;58763;47.982;11.516;2024-03-08T11:45:33;18.98;;;9.93;;
71106;SDS011;58763;47.982;11.516;2024-03-08T11:48:02;18.60;;;10.00;;
71106;SDS011;58763;47.982;11.516;2024-03-08T11:50:32;19.08;;;10.45;;
71106;SDS011;58763;47.982;11.516;2024-03-08T11:53:02;19.52;;;10.77;;
71106;SDS011;58763;47.982;11.516;2024-03-08T11:58:02;16.52;;;9.00;;
71106;SDS011;58763;47.982;11.516;2024-03-08T12:00:28;17.55;;;9.93;;
71106;SDS011;58763;47.982;11.516;2024-03-08T12:03:04;20.90;;;11.13;;
71106;SDS011;58763;47.982;11.516;2024-03-08T12:07:58;17.60;;;9.70;;
71106;SDS011;58763;47.982;11.516;2024-03-08T12:10:25;18.35;;;8.95;;
71106;SDS011;58763;47.982;11.516;2024-03-08T12:12:55;15.38;;;8.73;;
71106;SDS011;58763;47.982;11.516;2024-03-08T12:15:24;16.67;;;9.23;;
71106;SDS011;58763;47.982;11.516;2024-03-08T12:17:51;15.98;;;9.02;;
71106;SDS011;58763;47.982;11.516;2024-03-08T12:20:19;18.17;;;9.88;;
71106;SDS011;58763;47.982;11.516;2024-03-08T12:22:56;16.60;;;9.98;;
71106;SDS011;58763;47.982;11.516;2024-03-08T12:25:27;16.95;;;9.35;;
71106;SDS011;58763;47.982;11.516;2024-03-08T12:27:56;17.65;;;9.80;;
71106;SDS011;58763;47.982;11.516;2024-03-08T12:30:26;18.02;;;9.90;;
71106;SDS011;58763;47.982;11.516;2024-03-08T12:35:28;16.13;;;9.50;;
71106;SDS011;58763;47.982;11.516;2024-03-08T12:37:56;18.50;;;9.50;;
71106;SDS011;58763;47.982;11.516;2024-03-08T12:40:30;17.20;;;9.02;;
71106;SDS011;58763;47.982;11.516;2024-03-08T12:42:57;19.23;;;9.13;;
71106;SDS011;58763;47.982;11.516;2024-03-08T12:45:24;20.55;;;10.27;;
71106;SDS011;58763;47.982;11.516;2024-03-08T12:47:53;17.42;;;10.25;;
71106;SDS011;58763;47.982;11.516;2024-03-08T12:50:20;18.75;;;9.85;;
71106;SDS011;58763;47.982;11.516;2024-03-08T12:52:47;18.45;;;9.95;;
71106;SDS011;58763;47.982;11.516;2024-03-08T12:55:18;17.13;;;9.63;;
71106;SDS011;58763;47.982;11.516;2024-03-08T12:57:44;20.20;;;9.88;;
71106;SDS011;58763;47.982;11.516;2024-03-08T13:00:10;17.60;;;9.80;;
71106;SDS011;58763;47.982;11.516;2024-03-08T13:02:47;18.02;;;9.80;;
71106;SDS011;58763;47.982;11.516;2024-03-08T13:05:13;23.20;;;10.55;;
71106;SDS011;58763;47.982;11.516;2024-03-08T13:07:40;35.28;;;10.68;;
71106;SDS011;58763;47.982;11.516;2024-03-08T13:10:14;16.52;;;9.43;;
71106;SDS011;58763;47.982;11.516;2024-03-08T13:12:44;20.67;;;10.17;;
71106;SDS011;58763;47.982;11.516;2024-03-08T13:15:10;19.98;;;10.30;;
71106;SDS011;58763;47.982;11.516;2024-03-08T13:17:40;18.60;;;9.82;;
71106;SDS011;58763;47.982;11.516;2024-03-08T13:20:08;21.25;;;10.93;;
71106;SDS011;58763;47.982;11.516;2024-03-08T13:22:35;18.00;;;10.27;;
71106;SDS011;58763;47.982;11.516;2024-03-08T13:25:01;21.15;;;10.30;;
71106;SDS011;58763;47.982;11.516;2024-03-08T13:27:28;21.00;;;10.63;;
71106;SDS011;58763;47.982;11.516;2024-03-08T13:29:53;19.55;;;10.05;;
71106;SDS011;58763;47.982;11.516;2024-03-08T13:32:19;17.85;;;10.18;;
71106;SDS011;58763;47.982;11.516;2024-03-08T13:34:46;19.83;;;9.93;;
71106;SDS011;58763;47.982;11.516;2024-03-08T13:37:19;17.45;;;9.73;;
71106;SDS011;58763;47.982;11.516;2024-03-08T13:39:45;20.17;;;11.10;;
71106;SDS011;58763;47.982;11.516;2024-03-08T13:42:11;19.55;;;10.45;;
71106;SDS011;58763;47.982;11.516;2024-03-08T13:44:48;17.75;;;9.98;;
71106;SDS011;58763;47.982;11.516;2024-03-08T13:47:19;19.55;;;10.65;;
71106;SDS011;58763;47.982;11.516;2024-03-08T13:49:47;21.23;;;10.90;;
71106;SDS011;58763;47.982;11.516;2024-03-08T13:52:16;20.35;;;10.50;;
71106;SDS011;58763;47.982;11.516;2024-03-08T13:54:41;18.10;;;10.60;;
71106;SDS011;58763;47.982;11.516;2024-03-08T13:57:07;19.50;;;10.55;;
71106;SDS011;58763;47.982;11.516;2024-03-08T13:59:33;25.58;;;10.88;;
71106;SDS011;58763;47.982;11.516;2024-03-08T14:02:01;21.50;;;10.23;;
71106;SDS011;58763;47.982;11.516;2024-03-08T14:04:28;17.90;;;10.25;;
71106;SDS011;58763;47.982;11.516;2024-03-08T14:06:54;19.27;;;9.43;;
71106;SDS011;58763;47.982;11.516;2024-03-08T14:09:24;16.52;;;8.98;;
71106;SDS011;58763;47.982;11.516;2024-03-08T14:11:57;17.25;;;9.63;;
71106;SDS011;58763;47.982;11.516;2024-03-08T14:14:24;14.73;;;8.35;;
71106;SDS011;58763;47.982;11.516;2024-03-08T14:16:50;15.32;;;7.90;;
71106;SDS011;58763;47.982;11.516;2024-03-08T14:19:20;15.43;;;8.32;;
71106;SDS011;58763;47.982;11.516;2024-03-08T14:21:46;16.00;;;8.90;;
71106;SDS011;58763;47.982;11.516;2024-03-08T14:24:16;14.35;;;8.10;;
71106;SDS011;58763;47.982;11.516;2024-03-08T14:26:44;16.15;;;8.93;;
71106;SDS011;58763;47.982;11.516;2024-03-08T14:29:09;16.00;;;8.75;;
71106;SDS011;58763;47.982;11.516;2024-03-08T14:31:35;17.83;;;9.15;;